sensor_id;sensor_type;location;lat;lon;timestamp;P1;durP1;ratioP1;P2;durP2;ratioP2
74473;SDS011;62922;-6.168;106.796;2022-09-20T00:03:24;45.97;;;20.33;;
74473;SDS011;62922;-6.168;106.796;2022-09-20T00:05:50;45.00;;;19.35;;
74473;SDS011;62922;-6.168;106.796;2022-09-20T00:08:16;44.35;;;20.30;;
74473;SDS011;62922;-6.168;106.796;2022-09-20T00:10:42;49.17;;;19.77;;
74473;SDS011;62922;-6.168;106.796;2022-09-20T00:13:09;41.35;;;19.08;;
74473;SDS011;62922;-6.168;106.796;2022-09-20T00:18:04;48.35;;;19.40;;
74473;SDS011;62922;-6.168;106.796;2022-09-20T00:20:30;54.40;;;20.85;;
74473;SDS011;62922;-6.168;106.796;2022-09-20T00:22:56;48.20;;;20.33;;
74473;SDS011;62922;-6.168;106.796;2022-09-20T00:25:21;42.58;;;19.80;;
74473;SDS011;62922;-6.168;106.796;2022-09-20T00:27:47;38.50;;;19.23;;
74473;SDS011;62922;-6.168;106.796;2022-09-20T00:30:13;43.45;;;19.35;;
74473;SDS011;62922;-6.168;106.796;2022-09-20T00:32:39;43.13;;;19.92;;
74473;SDS011;62922;-6.168;106.796;2022-09-20T00:35:06;43.35;;;19.67;;
74473;SDS011;62922;-6.168;106.796;2022-09-20T00:37:33;47.42;;;20.55;;
74473;SDS011;62922;-6.168;106.796;2022-09-20T00:39:59;42.35;;;19.27;;
74473;SDS011;62922;-6.168;106.796;2022-09-20T00:42:26;43.95;;;20.02;;
74473;SDS011;62922;-6.168;106.796;2022-09-20T00:44:55;41.92;;;19.80;;
74473;SDS011;62922;-6.168;106.796;2022-09-20T00:49:47;55.47;;;21.50;;
74473;SDS011;62922;-6.168;106.796;2022-09-20T00:52:14;45.00;;;21.00;;
74473;SDS011;62922;-6.168;106.796;2022-09-20T00:54:40;45.00;;;20.13;;
74473;SDS011;62922;-6.168;106.796;2022-09-20T00:57:06;46.28;;;20.73;;
74473;SDS011;62922;-6.168;106.796;2022-09-20T00:59:33;41.83;;;19.95;;
74473;SDS011;62922;-6.168;106.796;2022-09-20T01:02:05;43.17;;;19.38;;
74473;SDS011;62922;-6.168;106.796;2022-09-20T01:04:33;43.08;;;19.35;;
74473;SDS011;62922;-6.168;106.796;2022-09-20T01:07:01;42.33;;;19.65;;
74473;SDS011;62922;-6.168;106.796;2022-09-20T01:09:27;44.00;;;20.05;;
74473;SDS011;62922;-6.168;106.796;2022-09-20T01:11:54;41.63;;;20.40;;
74473;SDS011;62922;-6.168;106.796;2022-09-20T01:14:20;45.40;;;20.77;;
74473;SDS011;62922;-6.168;106.796;2022-09-20T01:16:48;51.58;;;21.85;;
74473;SDS011;62922;-6.168;106.796;2022-09-20T01:19:18;51.03;;;20.35;;
74473;SDS011;62922;-6.168;106.796;2022-09-20T01:21:48;50.05;;;19.25;;
74473;SDS011;62922;-6.168;106.796;2022-09-20T01:31:35;44.55;;;19.52;;
74473;SDS011;62922;-6.168;106.796;2022-09-20T01:39:06;43.58;;;20.42;;
74473;SDS011;62922;-6.168;106.796;2022-09-20T01:41:37;51.75;;;21.13;;
74473;SDS011;62922;-6.168;106.796;2022-09-20T01:44:05;48.47;;;19.80;;
74473;SDS011;62922;-6.168;106.796;2022-09-20T01:46:35;45.00;;;18.30;;
74473;SDS011;62922;-6.168;106.796;2022-09-20T01:51:31;39.40;;;18.05;;
74473;SDS011;62922;-6.168;106.796;2022-09-20T02:01:34;48.70;;;19.27;;
74473;SDS011;62922;-6.168;106.796;2022-09-20T02:09:12;40.42;;;19.13;;
74473;SDS011;62922;-6.168;106.796;2022-09-20T02:38:54;47.17;;;20.35;;
74473;SDS011;62922;-6.168;106.796;2022-09-20T02:41:27;47.08;;;20.17;;
74473;SDS011;62922;-6.168;106.796;2022-09-20T02:44:51;47.17;;;20.17;;
74473;SDS011;62922;-6.168;106.796;2022-09-20T02:46:49;45.55;;;20.05;;
74473;SDS011;62922;-6.168;106.796;2022-09-20T02:51:50;40.83;;;19.95;;
74473;SDS011;62922;-6.168;106.796;2022-09-20T03:12:11;41.13;;;19.40;;
74473;SDS011;62922;-6.168;106.796;2022-09-20T03:14:18;42.08;;;20.33;;
74473;SDS011;62922;-6.168;106.796;2022-09-20T03:29:12;42.85;;;19.27;;
74473;SDS011;62922;-6.168;106.796;2022-09-20T03:31:47;44.38;;;18.80;;
74473;SDS011;62922;-6.168;106.796;2022-09-20T03:34:54;39.55;;;18.90;;
74473;SDS011;62922;-6.168;106.796;2022-09-20T03:39:31;40.70;;;19.63;;
74473;SDS011;62922;-6.168;106.796;2022-09-20T03:47:02;44.47;;;20.17;;
74473;SDS011;62922;-6.168;106.796;2022-09-20T03:59:57;43.75;;;18.30;;
74473;SDS011;62922;-6.168;106.796;2022-09-20T04:14:36;37.63;;;18.17;;
74473;SDS011;62922;-6.168;106.796;2022-09-20T04:17:10;39.95;;;17.70;;
74473;SDS011;62922;-6.168;106.796;2022-09-20T04:20:00;37.67;;;17.25;;
74473;SDS011;62922;-6.168;106.796;2022-09-20T04:22:24;42.22;;;17.65;;
74473;SDS011;62922;-6.168;106.796;2022-09-20T04:24:56;41.03;;;17.50;;
74473;SDS011;62922;-6.168;106.796;2022-09-20T04:32:23;38.17;;;17.45;;
74473;SDS011;62922;-6.168;106.796;2022-09-20T04:34:54;35.85;;;17.40;;
74473;SDS011;62922;-6.168;106.796;2022-09-20T04:37:27;38.15;;;17.48;;
74473;SDS011;62922;-6.168;106.796;2022-09-20T04:49:51;36.47;;;17.67;;
74473;SDS011;62922;-6.168;106.796;2022-09-20T04:54:55;37.55;;;18.73;;
74473;SDS011;62922;-6.168;106.796;2022-09-20T05:12:14;38.95;;;18.63;;
74473;SDS011;62922;-6.168;106.796;2022-09-20T05:14:51;35.88;;;18.88;;
74473;SDS011;62922;-6.168;106.796;2022-09-20T05:32:18;40.75;;;19.38;;
74473;SDS011;62922;-6.168;106.796;2022-09-20T05:39:53;33.70;;;18.08;;
74473;SDS011;62922;-6.168;106.796;2022-09-20T05:44:56;39.75;;;19.33;;
74473;SDS011;62922;-6.168;106.796;2022-09-20T05:50:34;41.38;;;19.50;;
74473;SDS011;62922;-6.168;106.796;2022-09-20T05:55:15;44.05;;;20.40;;
74473;SDS011;62922;-6.168;106.796;2022-09-20T06:17:32;47.25;;;20.75;;
74473;SDS011;62922;-6.168;106.796;2022-09-20T06:22:28;44.83;;;22.27;;
74473;SDS011;62922;-6.168;106.796;2022-09-20T06:24:59;42.53;;;21.95;;
74473;SDS011;62922;-6.168;106.796;2022-09-20T06:27:29;49.33;;;23.27;;
74473;SDS011;62922;-6.168;106.796;2022-09-20T06:29:58;47.22;;;22.85;;
74473;SDS011;62922;-6.168;106.796;2022-09-20T06:32:24;47.50;;;22.48;;
74473;SDS011;62922;-6.168;106.796;2022-09-20T06:34:51;45.65;;;23.23;;
74473;SDS011;62922;-6.168;106.796;2022-09-20T06:42:19;52.80;;;23.80;;
74473;SDS011;62922;-6.168;106.796;2022-09-20T06:44:45;50.95;;;24.60;;
74473;SDS011;62922;-6.168;106.796;2022-09-20T06:47:12;44.63;;;23.05;;
74473;SDS011;62922;-6.168;106.796;2022-09-20T06:49:38;44.70;;;23.33;;
74473;SDS011;62922;-6.168;106.796;2022-09-20T06:52:07;49.17;;;24.02;;
74473;SDS011;62922;-6.168;106.796;2022-09-20T06:54:35;48.78;;;25.05;;
74473;SDS011;62922;-6.168;106.796;2022-09-20T06:57:02;47.95;;;24.63;;
74473;SDS011;62922;-6.168;106.796;2022-09-20T06:59:29;43.50;;;23.00;;
74473;SDS011;62922;-6.168;106.796;2022-09-20T07:01:55;52.28;;;23.58;;
74473;SDS011;62922;-6.168;106.796;2022-09-20T07:04:24;45.95;;;24.42;;
74473;SDS011;62922;-6.168;106.796;2022-09-20T07:06:51;53.53;;;25.00;;
74473;SDS011;62922;-6.168;106.796;2022-09-20T07:09:18;48.67;;;23.90;;
74473;SDS011;62922;-6.168;106.796;2022-09-20T07:11:46;49.38;;;23.10;;
74473;SDS011;62922;-6.168;106.796;2022-09-20T07:14:12;50.85;;;24.85;;
74473;SDS011;62922;-6.168;106.796;2022-09-20T07:16:39;51.90;;;25.40;;
74473;SDS011;62922;-6.168;106.796;2022-09-20T07:19:06;51.25;;;25.10;;
74473;SDS011;62922;-6.168;106.796;2022-09-20T07:21:32;44.88;;;24.23;;
74473;SDS011;62922;-6.168;106.796;2022-09-20T07:23:58;50.05;;;25.13;;
74473;SDS011;62922;-6.168;106.796;2022-09-20T07:26:25;46.78;;;23.92;;
74473;SDS011;62922;-6.168;106.796;2022-09-20T07:28:52;55.28;;;25.08;;
74473;SDS011;62922;-6.168;106.796;2022-09-20T07:31:19;50.17;;;23.55;;
74473;SDS011;62922;-6.168;106.796;2022-09-20T07:33:47;40.45;;;23.55;;
74473;SDS011;62922;-6.168;106.796;2022-09-20T07:36:13;49.53;;;23.08;;
74473;SDS011;62922;-6.168;106.796;2022-09-20T07:38:41;45.88;;;22.00;;
74473;SDS011;62922;-6.168;106.796;2022-09-20T07:41:08;51.88;;;24.23;;
74473;SDS011;62922;-6.168;106.796;2022-09-20T07:43:34;49.75;;;23.27;;
74473;SDS011;62922;-6.168;106.796;2022-09-20T07:46:00;46.38;;;22.67;;
74473;SDS011;62922;-6.168;106.796;2022-09-20T07:48:33;43.08;;;22.95;;
74473;SDS011;62922;-6.168;106.796;2022-09-20T07:51:07;48.85;;;23.23;;
74473;SDS011;62922;-6.168;106.796;2022-09-20T07:53:34;49.13;;;23.80;;
74473;SDS011;62922;-6.168;106.796;2022-09-20T07:58:26;46.78;;;24.08;;
74473;SDS011;62922;-6.168;106.796;2022-09-20T08:00:53;43.05;;;22.48;;
74473;SDS011;62922;-6.168;106.796;2022-09-20T08:03:18;44.08;;;22.25;;
74473;SDS011;62922;-6.168;106.796;2022-09-20T08:05:44;47.55;;;24.17;;
74473;SDS011;62922;-6.168;106.796;2022-09-20T08:08:10;54.33;;;24.80;;
74473;SDS011;62922;-6.168;106.796;2022-09-20T08:10:36;52.25;;;26.30;;
74473;SDS011;62922;-6.168;106.796;2022-09-20T08:13:05;49.63;;;26.60;;
74473;SDS011;62922;-6.168;106.796;2022-09-20T08:15:31;50.42;;;25.48;;
74473;SDS011;62922;-6.168;106.796;2022-09-20T08:17:56;43.33;;;23.65;;
74473;SDS011;62922;-6.168;106.796;2022-09-20T08:20:22;47.78;;;25.70;;
74473;SDS011;62922;-6.168;106.796;2022-09-20T08:22:48;49.65;;;23.83;;
74473;SDS011;62922;-6.168;106.796;2022-09-20T08:25:14;41.30;;;23.65;;
74473;SDS011;62922;-6.168;106.796;2022-09-20T08:27:43;57.92;;;24.75;;
74473;SDS011;62922;-6.168;106.796;2022-09-20T08:30:09;53.63;;;27.02;;
74473;SDS011;62922;-6.168;106.796;2022-09-20T08:32:37;42.80;;;24.23;;
74473;SDS011;62922;-6.168;106.796;2022-09-20T08:35:03;44.25;;;24.35;;
74473;SDS011;62922;-6.168;106.796;2022-09-20T08:37:29;56.10;;;26.30;;
74473;SDS011;62922;-6.168;106.796;2022-09-20T08:39:54;44.85;;;25.27;;
74473;SDS011;62922;-6.168;106.796;2022-09-20T08:47:18;44.72;;;24.27;;
74473;SDS011;62922;-6.168;106.796;2022-09-20T08:49:44;44.15;;;23.55;;
74473;SDS011;62922;-6.168;106.796;2022-09-20T08:52:14;44.30;;;23.88;;
74473;SDS011;62922;-6.168;106.796;2022-09-20T08:54:44;41.28;;;24.33;;
74473;SDS011;62922;-6.168;106.796;2022-09-20T08:57:13;44.17;;;23.48;;
74473;SDS011;62922;-6.168;106.796;2022-09-20T08:59:39;47.45;;;24.02;;
74473;SDS011;62922;-6.168;106.796;2022-09-20T09:02:12;43.00;;;24.17;;
74473;SDS011;62922;-6.168;106.796;2022-09-20T09:04:40;42.92;;;23.90;;
74473;SDS011;62922;-6.168;106.796;2022-09-20T09:07:09;51.03;;;25.88;;
74473;SDS011;62922;-6.168;106.796;2022-09-20T09:09:37;47.65;;;24.73;;
74473;SDS011;62922;-6.168;106.796;2022-09-20T09:12:13;42.38;;;25.00;;
74473;SDS011;62922;-6.168;106.796;2022-09-20T09:14:39;44.65;;;24.60;;
74473;SDS011;62922;-6.168;106.796;2022-09-20T09:17:09;44.83;;;24.60;;
74473;SDS011;62922;-6.168;106.796;2022-09-20T09:19:50;41.90;;;25.23;;
74473;SDS011;62922;-6.168;106.796;2022-09-20T09:22:17;43.08;;;26.15;;
74473;SDS011;62922;-6.168;106.796;2022-09-20T09:24:43;41.28;;;25.35;;
74473;SDS011;62922;-6.168;106.796;2022-09-20T09:29:47;40.90;;;23.85;;
74473;SDS011;62922;-6.168;106.796;2022-09-20T09:34:42;40.03;;;23.48;;
74473;SDS011;62922;-6.168;106.796;2022-09-20T09:37:20;48.50;;;23.40;;
74473;SDS011;62922;-6.168;106.796;2022-09-20T09:39:46;41.78;;;23.45;;
74473;SDS011;62922;-6.168;106.796;2022-09-20T09:42:29;41.67;;;22.70;;
74473;SDS011;62922;-6.168;106.796;2022-09-20T09:47:26;42.75;;;23.23;;
74473;SDS011;62922;-6.168;106.796;2022-09-20T09:52:21;44.72;;;22.48;;
74473;SDS011;62922;-6.168;106.796;2022-09-20T09:54:53;44.13;;;21.00;;
74473;SDS011;62922;-6.168;106.796;2022-09-20T10:02:26;43.40;;;21.20;;
74473;SDS011;62922;-6.168;106.796;2022-09-20T10:04:57;42.55;;;21.33;;
74473;SDS011;62922;-6.168;106.796;2022-09-20T10:07:58;46.55;;;21.40;;
74473;SDS011;62922;-6.168;106.796;2022-09-20T10:15:14;40.35;;;21.95;;
74473;SDS011;62922;-6.168;106.796;2022-09-20T10:17:49;46.72;;;23.20;;
74473;SDS011;62922;-6.168;106.796;2022-09-20T10:20:23;46.08;;;22.80;;
74473;SDS011;62922;-6.168;106.796;2022-09-20T10:30:15;40.20;;;23.02;;
74473;SDS011;62922;-6.168;106.796;2022-09-20T10:32:48;43.10;;;22.77;;
74473;SDS011;62922;-6.168;106.796;2022-09-20T10:42:44;47.35;;;22.90;;
74473;SDS011;62922;-6.168;106.796;2022-09-20T10:50:17;46.47;;;23.77;;
74473;SDS011;62922;-6.168;106.796;2022-09-20T11:05:17;53.13;;;25.55;;
74473;SDS011;62922;-6.168;106.796;2022-09-20T11:12:40;48.72;;;25.65;;
74473;SDS011;62922;-6.168;106.796;2022-09-20T11:17:37;59.17;;;24.67;;
74473;SDS011;62922;-6.168;106.796;2022-09-20T11:20:14;57.42;;;25.45;;
74473;SDS011;62922;-6.168;106.796;2022-09-20T11:22:42;49.88;;;24.60;;
74473;SDS011;62922;-6.168;106.796;2022-09-20T11:27:51;54.72;;;26.88;;
74473;SDS011;62922;-6.168;106.796;2022-09-20T11:32:46;47.90;;;24.13;;
74473;SDS011;62922;-6.168;106.796;2022-09-20T11:35:47;47.88;;;24.35;;
74473;SDS011;62922;-6.168;106.796;2022-09-20T11:40:31;46.80;;;26.33;;
74473;SDS011;62922;-6.168;106.796;2022-09-20T11:42:59;44.83;;;24.88;;
74473;SDS011;62922;-6.168;106.796;2022-09-20T11:45:26;48.17;;;26.40;;
74473;SDS011;62922;-6.168;106.796;2022-09-20T11:47:55;39.90;;;23.77;;
74473;SDS011;62922;-6.168;106.796;2022-09-20T11:55:23;41.65;;;23.13;;
74473;SDS011;62922;-6.168;106.796;2022-09-20T12:00:27;40.65;;;21.77;;
74473;SDS011;62922;-6.168;106.796;2022-09-20T12:02:54;41.78;;;21.15;;
74473;SDS011;62922;-6.168;106.796;2022-09-20T12:05:22;43.30;;;21.67;;
74473;SDS011;62922;-6.168;106.796;2022-09-20T12:07:51;41.83;;;21.60;;
74473;SDS011;62922;-6.168;106.796;2022-09-20T12:12:47;36.88;;;21.80;;
74473;SDS011;62922;-6.168;106.796;2022-09-20T12:22:41;39.97;;;20.42;;
74473;SDS011;62922;-6.168;106.796;2022-09-20T12:32:33;44.45;;;23.25;;
74473;SDS011;62922;-6.168;106.796;2022-09-20T12:37:32;43.08;;;22.90;;
74473;SDS011;62922;-6.168;106.796;2022-09-20T12:39:59;41.95;;;22.13;;
74473;SDS011;62922;-6.168;106.796;2022-09-20T12:42:26;41.35;;;22.00;;
74473;SDS011;62922;-6.168;106.796;2022-09-20T12:44:58;46.38;;;21.75;;
74473;SDS011;62922;-6.168;106.796;2022-09-20T12:47:26;46.17;;;21.85;;
74473;SDS011;62922;-6.168;106.796;2022-09-20T12:49:54;39.85;;;20.88;;
74473;SDS011;62922;-6.168;106.796;2022-09-20T12:52:26;45.67;;;21.95;;
74473;SDS011;62922;-6.168;106.796;2022-09-20T12:54:56;46.13;;;23.48;;
74473;SDS011;62922;-6.168;106.796;2022-09-20T12:57:26;44.92;;;20.77;;
74473;SDS011;62922;-6.168;106.796;2022-09-20T12:59:54;45.37;;;21.60;;
74473;SDS011;62922;-6.168;106.796;2022-09-20T13:04:51;45.47;;;21.42;;
74473;SDS011;62922;-6.168;106.796;2022-09-20T13:09:46;44.70;;;22.25;;
74473;SDS011;62922;-6.168;106.796;2022-09-20T13:12:15;48.63;;;22.67;;
74473;SDS011;62922;-6.168;106.796;2022-09-20T13:14:42;44.97;;;21.08;;
74473;SDS011;62922;-6.168;106.796;2022-09-20T13:24:48;42.03;;;20.33;;
74473;SDS011;62922;-6.168;106.796;2022-09-20T13:27:16;44.20;;;20.70;;
74473;SDS011;62922;-6.168;106.796;2022-09-20T13:29:44;47.20;;;21.20;;
74473;SDS011;62922;-6.168;106.796;2022-09-20T13:34:38;41.55;;;21.67;;
74473;SDS011;62922;-6.168;106.796;2022-09-20T13:37:04;42.28;;;20.85;;
74473;SDS011;62922;-6.168;106.796;2022-09-20T13:39:37;43.58;;;22.27;;
74473;SDS011;62922;-6.168;106.796;2022-09-20T13:42:04;44.20;;;21.05;;
74473;SDS011;62922;-6.168;106.796;2022-09-20T13:44:32;46.97;;;21.65;;
74473;SDS011;62922;-6.168;106.796;2022-09-20T13:46:59;45.38;;;20.70;;
74473;SDS011;62922;-6.168;106.796;2022-09-20T13:49:29;38.45;;;19.80;;
74473;SDS011;62922;-6.168;106.796;2022-09-20T13:51:55;44.15;;;20.58;;
74473;SDS011;62922;-6.168;106.796;2022-09-20T13:56:49;36.95;;;18.95;;
74473;SDS011;62922;-6.168;106.796;2022-09-20T13:59:15;45.83;;;19.65;;
74473;SDS011;62922;-6.168;106.796;2022-09-20T14:01:47;40.88;;;19.67;;
74473;SDS011;62922;-6.168;106.796;2022-09-20T14:04:15;38.65;;;19.55;;
74473;SDS011;62922;-6.168;106.796;2022-09-20T14:06:42;39.80;;;18.50;;
74473;SDS011;62922;-6.168;106.796;2022-09-20T14:09:12;37.83;;;18.35;;
74473;SDS011;62922;-6.168;106.796;2022-09-20T14:11:43;38.38;;;19.75;;
74473;SDS011;62922;-6.168;106.796;2022-09-20T14:14:09;33.55;;;17.60;;
74473;SDS011;62922;-6.168;106.796;2022-09-20T14:16:38;34.55;;;16.63;;
74473;SDS011;62922;-6.168;106.796;2022-09-20T14:19:05;35.28;;;16.75;;
74473;SDS011;62922;-6.168;106.796;2022-09-20T14:21:32;34.88;;;16.58;;
74473;SDS011;62922;-6.168;106.796;2022-09-20T14:24:31;35.20;;;16.42;;
74473;SDS011;62922;-6.168;106.796;2022-09-20T14:31:42;42.63;;;23.45;;
74473;SDS011;62922;-6.168;106.796;2022-09-20T14:34:10;50.10;;;26.23;;
74473;SDS011;62922;-6.168;106.796;2022-09-20T14:36:37;49.60;;;30.13;;
74473;SDS011;62922;-6.168;106.796;2022-09-20T14:39:03;49.70;;;28.20;;
74473;SDS011;62922;-6.168;106.796;2022-09-20T14:41:32;45.17;;;24.90;;
74473;SDS011;62922;-6.168;106.796;2022-09-20T14:43:59;44.35;;;22.17;;
74473;SDS011;62922;-6.168;106.796;2022-09-20T14:49:17;37.95;;;19.90;;
74473;SDS011;62922;-6.168;106.796;2022-09-20T14:51:40;36.20;;;19.42;;
74473;SDS011;62922;-6.168;106.796;2022-09-20T14:56:35;37.92;;;22.63;;
74473;SDS011;62922;-6.168;106.796;2022-09-20T14:59:03;40.63;;;21.40;;
74473;SDS011;62922;-6.168;106.796;2022-09-20T15:01:30;40.42;;;22.38;;
74473;SDS011;62922;-6.168;106.796;2022-09-20T15:03:57;43.67;;;21.90;;
74473;SDS011;62922;-6.168;106.796;2022-09-20T15:06:23;48.42;;;24.13;;
74473;SDS011;62922;-6.168;106.796;2022-09-20T15:08:49;43.53;;;24.85;;
74473;SDS011;62922;-6.168;106.796;2022-09-20T15:11:17;46.88;;;23.83;;
74473;SDS011;62922;-6.168;106.796;2022-09-20T15:13:44;48.03;;;25.70;;
74473;SDS011;62922;-6.168;106.796;2022-09-20T15:16:12;45.15;;;24.00;;
74473;SDS011;62922;-6.168;106.796;2022-09-20T15:18:39;44.40;;;24.45;;
74473;SDS011;62922;-6.168;106.796;2022-09-20T15:21:06;47.00;;;26.13;;
74473;SDS011;62922;-6.168;106.796;2022-09-20T15:23:32;48.05;;;27.65;;
74473;SDS011;62922;-6.168;106.796;2022-09-20T15:26:00;54.33;;;28.40;;
74473;SDS011;62922;-6.168;106.796;2022-09-20T15:28:31;52.53;;;31.60;;
74473;SDS011;62922;-6.168;106.796;2022-09-20T15:31:03;54.63;;;31.42;;
74473;SDS011;62922;-6.168;106.796;2022-09-20T15:33:29;50.65;;;28.58;;
74473;SDS011;62922;-6.168;106.796;2022-09-20T15:35:56;56.00;;;30.95;;
74473;SDS011;62922;-6.168;106.796;2022-09-20T15:38:22;54.28;;;29.73;;
74473;SDS011;62922;-6.168;106.796;2022-09-20T15:40:51;50.70;;;29.02;;
74473;SDS011;62922;-6.168;106.796;2022-09-20T15:43:19;48.28;;;26.63;;
74473;SDS011;62922;-6.168;106.796;2022-09-20T15:48:14;41.00;;;24.25;;
74473;SDS011;62922;-6.168;106.796;2022-09-20T15:50:42;44.40;;;25.73;;
74473;SDS011;62922;-6.168;106.796;2022-09-20T15:53:08;43.45;;;24.45;;
74473;SDS011;62922;-6.168;106.796;2022-09-20T15:55:35;44.47;;;21.88;;
74473;SDS011;62922;-6.168;106.796;2022-09-20T15:58:01;44.70;;;22.90;;
74473;SDS011;62922;-6.168;106.796;2022-09-20T16:00:28;42.85;;;21.60;;
74473;SDS011;62922;-6.168;106.796;2022-09-20T16:02:56;33.95;;;18.77;;
74473;SDS011;62922;-6.168;106.796;2022-09-20T16:05:22;37.88;;;19.92;;
74473;SDS011;62922;-6.168;106.796;2022-09-20T16:07:50;40.15;;;20.83;;
74473;SDS011;62922;-6.168;106.796;2022-09-20T16:10:16;35.08;;;19.02;;
74473;SDS011;62922;-6.168;106.796;2022-09-20T16:12:42;35.95;;;17.88;;
74473;SDS011;62922;-6.168;106.796;2022-09-20T16:15:08;34.30;;;17.42;;
74473;SDS011;62922;-6.168;106.796;2022-09-20T16:17:34;38.70;;;18.25;;
74473;SDS011;62922;-6.168;106.796;2022-09-20T16:20:20;33.33;;;16.88;;
74473;SDS011;62922;-6.168;106.796;2022-09-20T16:22:46;35.58;;;16.55;;
74473;SDS011;62922;-6.168;106.796;2022-09-20T16:25:12;32.75;;;15.88;;
74473;SDS011;62922;-6.168;106.796;2022-09-20T16:27:38;31.85;;;16.83;;
74473;SDS011;62922;-6.168;106.796;2022-09-20T16:30:04;33.70;;;15.73;;
74473;SDS011;62922;-6.168;106.796;2022-09-20T16:32:32;33.40;;;16.40;;
74473;SDS011;62922;-6.168;106.796;2022-09-20T16:34:59;33.75;;;15.43;;
74473;SDS011;62922;-6.168;106.796;2022-09-20T16:37:28;32.40;;;14.90;;
74473;SDS011;62922;-6.168;106.796;2022-09-20T16:39:57;26.27;;;14.38;;
74473;SDS011;62922;-6.168;106.796;2022-09-20T16:42:23;36.50;;;15.63;;
74473;SDS011;62922;-6.168;106.796;2022-09-20T16:44:48;31.13;;;15.18;;
74473;SDS011;62922;-6.168;106.796;2022-09-20T16:47:15;35.08;;;15.25;;
74473;SDS011;62922;-6.168;106.796;2022-09-20T16:49:47;32.28;;;15.43;;
74473;SDS011;62922;-6.168;106.796;2022-09-20T16:52:14;33.80;;;15.48;;
74473;SDS011;62922;-6.168;106.796;2022-09-20T16:54:40;34.08;;;15.82;;
74473;SDS011;62922;-6.168;106.796;2022-09-20T16:57:06;34.20;;;15.55;;
74473;SDS011;62922;-6.168;106.796;2022-09-20T16:59:32;30.23;;;15.38;;
74473;SDS011;62922;-6.168;106.796;2022-09-20T17:01:58;35.42;;;17.20;;
74473;SDS011;62922;-6.168;106.796;2022-09-20T17:04:24;31.63;;;15.57;;
74473;SDS011;62922;-6.168;106.796;2022-09-20T17:06:49;36.65;;;18.15;;
74473;SDS011;62922;-6.168;106.796;2022-09-20T17:09:16;38.60;;;18.67;;
74473;SDS011;62922;-6.168;106.796;2022-09-20T17:11:43;36.05;;;17.17;;
74473;SDS011;62922;-6.168;106.796;2022-09-20T17:14:10;48.35;;;24.05;;
74473;SDS011;62922;-6.168;106.796;2022-09-20T17:16:37;50.78;;;25.92;;
74473;SDS011;62922;-6.168;106.796;2022-09-20T17:19:09;47.55;;;25.75;;
74473;SDS011;62922;-6.168;106.796;2022-09-20T17:21:36;47.55;;;24.75;;
74473;SDS011;62922;-6.168;106.796;2022-09-20T17:24:03;51.70;;;27.27;;
74473;SDS011;62922;-6.168;106.796;2022-09-20T17:26:31;52.90;;;26.85;;
74473;SDS011;62922;-6.168;106.796;2022-09-20T17:29:02;54.88;;;30.55;;
74473;SDS011;62922;-6.168;106.796;2022-09-20T17:31:30;58.50;;;30.77;;
74473;SDS011;62922;-6.168;106.796;2022-09-20T17:34:00;51.53;;;29.08;;
74473;SDS011;62922;-6.168;106.796;2022-09-20T17:36:28;59.25;;;31.02;;
74473;SDS011;62922;-6.168;106.796;2022-09-20T17:38:54;58.50;;;32.45;;
74473;SDS011;62922;-6.168;106.796;2022-09-20T17:41:21;58.47;;;34.22;;
74473;SDS011;62922;-6.168;106.796;2022-09-20T17:43:47;65.60;;;37.97;;
74473;SDS011;62922;-6.168;106.796;2022-09-20T17:46:14;66.90;;;38.78;;
74473;SDS011;62922;-6.168;106.796;2022-09-20T17:48:41;66.90;;;37.47;;
74473;SDS011;62922;-6.168;106.796;2022-09-20T17:51:08;74.35;;;41.03;;
74473;SDS011;62922;-6.168;106.796;2022-09-20T17:53:35;68.53;;;38.72;;
74473;SDS011;62922;-6.168;106.796;2022-09-20T17:56:01;76.57;;;39.63;;
74473;SDS011;62922;-6.168;106.796;2022-09-20T17:58:27;72.45;;;40.42;;
74473;SDS011;62922;-6.168;106.796;2022-09-20T18:00:54;65.45;;;40.00;;
74473;SDS011;62922;-6.168;106.796;2022-09-20T18:05:53;66.55;;;40.55;;
74473;SDS011;62922;-6.168;106.796;2022-09-20T18:08:19;73.20;;;40.58;;
74473;SDS011;62922;-6.168;106.796;2022-09-20T18:13:14;70.10;;;39.28;;
74473;SDS011;62922;-6.168;106.796;2022-09-20T18:15:41;73.20;;;40.38;;
74473;SDS011;62922;-6.168;106.796;2022-09-20T18:18:09;62.10;;;38.45;;
74473;SDS011;62922;-6.168;106.796;2022-09-20T18:20:36;72.10;;;40.00;;
74473;SDS011;62922;-6.168;106.796;2022-09-20T18:23:03;67.50;;;38.78;;
74473;SDS011;62922;-6.168;106.796;2022-09-20T18:25:29;62.83;;;37.75;;
74473;SDS011;62922;-6.168;106.796;2022-09-20T18:28:14;68.55;;;39.67;;
74473;SDS011;62922;-6.168;106.796;2022-09-20T18:30:42;67.15;;;39.97;;
74473;SDS011;62922;-6.168;106.796;2022-09-20T18:33:10;64.93;;;39.53;;
74473;SDS011;62922;-6.168;106.796;2022-09-20T18:35:36;70.20;;;39.28;;
74473;SDS011;62922;-6.168;106.796;2022-09-20T18:38:06;64.15;;;38.90;;
74473;SDS011;62922;-6.168;106.796;2022-09-20T18:40:32;62.78;;;38.55;;
74473;SDS011;62922;-6.168;106.796;2022-09-20T18:43:01;63.78;;;37.58;;
74473;SDS011;62922;-6.168;106.796;2022-09-20T18:45:27;62.55;;;37.45;;
74473;SDS011;62922;-6.168;106.796;2022-09-20T18:47:53;61.60;;;37.05;;
74473;SDS011;62922;-6.168;106.796;2022-09-20T18:50:21;60.67;;;37.80;;
74473;SDS011;62922;-6.168;106.796;2022-09-20T18:52:52;60.20;;;39.17;;
74473;SDS011;62922;-6.168;106.796;2022-09-20T18:55:18;65.40;;;37.50;;
74473;SDS011;62922;-6.168;106.796;2022-09-20T18:57:44;66.28;;;38.58;;
74473;SDS011;62922;-6.168;106.796;2022-09-20T19:00:13;65.60;;;37.10;;
74473;SDS011;62922;-6.168;106.796;2022-09-20T19:02:48;59.33;;;36.42;;
74473;SDS011;62922;-6.168;106.796;2022-09-20T19:05:20;61.25;;;37.92;;
74473;SDS011;62922;-6.168;106.796;2022-09-20T19:07:52;63.17;;;37.75;;
74473;SDS011;62922;-6.168;106.796;2022-09-20T19:10:27;59.50;;;36.35;;
74473;SDS011;62922;-6.168;106.796;2022-09-20T19:27:48;66.93;;;36.92;;
74473;SDS011;62922;-6.168;106.796;2022-09-20T19:30:15;59.50;;;36.55;;
74473;SDS011;62922;-6.168;106.796;2022-09-20T19:32:42;67.32;;;36.47;;
74473;SDS011;62922;-6.168;106.796;2022-09-20T19:35:14;63.38;;;37.85;;
74473;SDS011;62922;-6.168;106.796;2022-09-20T19:40:12;61.90;;;39.75;;
74473;SDS011;62922;-6.168;106.796;2022-09-20T19:52:32;61.60;;;38.53;;
74473;SDS011;62922;-6.168;106.796;2022-09-20T19:54:59;62.90;;;37.75;;
74473;SDS011;62922;-6.168;106.796;2022-09-20T19:59:53;61.88;;;38.38;;
74473;SDS011;62922;-6.168;106.796;2022-09-20T20:02:20;64.65;;;37.92;;
74473;SDS011;62922;-6.168;106.796;2022-09-20T20:04:46;64.60;;;39.55;;
74473;SDS011;62922;-6.168;106.796;2022-09-20T20:09:44;65.00;;;37.95;;
74473;SDS011;62922;-6.168;106.796;2022-09-20T20:12:13;61.08;;;39.22;;
74473;SDS011;62922;-6.168;106.796;2022-09-20T20:24:31;65.55;;;40.15;;
74473;SDS011;62922;-6.168;106.796;2022-09-20T20:27:01;63.28;;;39.58;;
74473;SDS011;62922;-6.168;106.796;2022-09-20T20:29:26;62.08;;;38.63;;
74473;SDS011;62922;-6.168;106.796;2022-09-20T20:31:52;59.38;;;38.95;;
74473;SDS011;62922;-6.168;106.796;2022-09-20T20:34:18;71.60;;;39.08;;